Time;durP1;ratioP1;P1;durP2;ratioP2;P2;SDS_P1;SDS_P2;PMS_P1;PMS_P2;Temp;Humidity;BMP_temperature;BMP_pressure;BME280_temperature;BME280_humidity;BME280_pressure;Samples;Min_cycle;Max_cycle;Signal;HPM_P1;HPM_P2
2022/03/13 00:00:30;;;;;;;15.13;6.93;;;;;;;2.94;48.15;101491.25;7388489;19;20716;-50
2022/03/13 00:03:00;;;;;;;13.37;7.47;;;;;;;2.93;49.59;101490.34;7384418;19;20419;-49
2022/03/13 00:05:30;;;;;;;20.10;8.43;;;;;;;2.88;50.36;101493.25;7387481;19;20378;-51
2022/03/13 00:08:00;;;;;;;18.37;7.37;;;;;;;2.87;49.88;101488.94;7384600;19;20415;-47
2022/03/13 00:10:33;;;;;;;19.97;8.23;;;;;;;2.82;50.00;101486.88;7389310;19;20920;-47
2022/03/13 00:13:05;;;;;;;13.17;7.43;;;;;;;2.81;50.91;101487.66;7385623;19;20447;-49
2022/03/13 00:15:38;;;;;;;15.33;7.83;;;;;;;2.86;51.25;101492.25;7387880;19;20599;-51
2022/03/13 00:18:09;;;;;;;15.00;6.93;;;;;;;2.69;50.34;101492.59;7384902;19;20399;-49
2022/03/13 00:20:40;;;;;;;17.73;8.00;;;;;;;2.65;53.00;101485.44;7389246;19;20383;-48
2022/03/13 00:23:12;;;;;;;14.23;7.17;;;;;;;2.71;51.99;101482.53;7382102;19;21054;-47
2022/03/13 00:25:42;;;;;;;14.93;7.90;;;;;;;2.74;52.84;101484.44;7395114;19;20403;-50
2022/03/13 00:28:17;;;;;;;15.10;7.43;;;;;;;2.68;51.10;101482.28;7392080;19;20405;-48
2022/03/13 00:30:47;;;;;;;16.07;8.17;;;;;;;2.72;55.08;101481.75;7397307;19;20366;-48
2022/03/13 00:33:16;;;;;;;15.20;8.60;;;;;;;2.80;53.22;101484.97;7393268;19;20406;-47
2022/03/13 00:35:46;;;;;;;23.17;8.63;;;;;;;2.71;54.61;101479.97;7395390;19;20772;-48
2022/03/13 00:38:15;;;;;;;16.90;8.30;;;;;;;2.60;51.63;101483.28;7393655;19;20439;-48
2022/03/13 00:40:48;;;;;;;20.07;8.23;;;;;;;2.62;54.74;101484.31;7398201;19;20694;-47
2022/03/13 00:43:20;;;;;;;15.10;7.70;;;;;;;2.47;52.24;101486.41;7393206;19;20951;-50
2022/03/13 00:45:51;;;;;;;14.23;7.73;;;;;;;2.51;52.32;101491.91;7395976;19;20408;-48
2022/03/13 00:48:22;;;;;;;14.90;7.70;;;;;;;2.48;52.76;101486.56;7393581;19;20416;-47
2022/03/13 00:50:51;;;;;;;20.50;8.63;;;;;;;2.64;56.60;101492.97;7397609;19;20372;-52
2022/03/13 00:53:21;;;;;;;15.20;8.00;;;;;;;2.49;52.74;101490.88;7392396;19;20412;-49
2022/03/13 00:55:51;;;;;;;13.47;7.80;;;;;;;2.66;54.16;101489.78;7399137;19;20471;-47
2022/03/13 00:58:23;;;;;;;14.63;7.33;;;;;;;2.70;54.41;101493.47;7392992;19;20417;-49
2022/03/13 01:00:53;;;;;;;14.50;7.43;;;;;;;2.57;52.43;101491.56;7398110;19;20375;-47
2022/03/13 01:03:32;;;;;;;18.60;8.20;;;;;;;2.45;53.15;101481.19;7394996;19;20944;-48
2022/03/13 01:06:02;;;;;;;15.70;7.47;;;;;;;2.29;52.55;101482.41;7394995;19;20402;-48
2022/03/13 01:08:32;;;;;;;15.33;7.90;;;;;;;2.27;54.08;101486.47;7392757;19;20394;-53
2022/03/13 01:11:01;;;;;;;18.60;8.87;;;;;;;2.21;53.09;101480.84;7397515;19;20411;-49
2022/03/13 01:13:35;;;;;;;15.30;7.77;;;;;;;2.26;53.67;101474.50;7393465;19;20379;-47
2022/03/13 01:16:13;;;;;;;15.27;8.33;;;;;;;2.16;53.64;101479.56;7395031;19;20830;-49
2022/03/13 01:18:45;;;;;;;21.33;9.33;;;;;;;2.26;54.18;101477.03;7392618;19;20917;-47
2022/03/13 01:21:15;;;;;;;15.73;8.50;;;;;;;2.37;55.90;101483.06;7396812;19;20398;-49
2022/03/13 01:24:21;;;;;;;21.03;8.50;;;;;;;2.23;53.42;101484.44;7392329;19;20415;-48
2022/03/13 01:26:55;;;;;;;15.23;8.27;;;;;;;2.24;55.04;101477.66;7396235;19;20395;-50
2022/03/13 01:29:27;;;;;;;25.97;9.50;;;;;;;2.14;53.77;101478.53;7392134;19;20407;-50
2022/03/13 01:31:57;;;;;;;20.20;10.20;;;;;;;2.12;58.20;101472.41;7396741;19;20698;-52
2022/03/13 01:34:41;;;;;;;23.60;10.47;;;;;;;2.12;53.84;101480.03;7392242;19;20402;-49
2022/03/13 01:37:15;;;;;;;19.73;10.70;;;;;;;2.17;56.30;101473.72;7395238;19;20371;-50
2022/03/13 01:39:45;;;;;;;20.60;10.60;;;;;;;2.12;54.31;101474.94;7395609;19;20911;-49
2022/03/13 01:42:14;;;;;;;21.63;9.90;;;;;;;1.98;53.17;101484.81;7392229;19;20407;-48
2022/03/13 01:44:46;;;;;;;24.97;10.67;;;;;;;2.10;55.21;101479.03;7395081;19;20761;-48
2022/03/13 01:47:16;;;;;;;17.47;9.23;;;;;;;2.00;54.42;101477.34;7392406;19;20371;-49
2022/03/13 01:49:46;;;;;;;18.00;9.30;;;;;;;1.84;54.78;101473.41;7398373;19;20372;-48
2022/03/13 01:52:16;;;;;;;18.33;9.60;;;;;;;1.83;54.79;101470.72;7390952;19;20738;-48
2022/03/13 01:54:47;;;;;;;16.77;9.10;;;;;;;1.96;57.35;101458.34;7394760;19;20748;-52
2022/03/13 01:57:19;;;;;;;28.83;9.53;;;;;;;1.74;54.26;101455.53;7391970;19;20767;-50
2022/03/13 01:59:54;;;;;;;15.70;8.20;;;;;;;1.78;55.10;101464.38;7394813;19;20387;-48
2022/03/13 02:02:25;;;;;;;20.63;8.80;;;;;;;1.63;54.76;101456.25;7392131;19;20394;-47
2022/03/13 02:04:56;;;;;;;20.83;9.50;;;;;;;1.61;54.97;101453.56;7394448;19;20419;-46
2022/03/13 02:07:28;;;;;;;16.90;8.50;;;;;;;1.52;56.00;101460.34;7391143;19;20405;-48
2022/03/13 02:09:58;;;;;;;17.53;8.77;;;;;;;1.63;56.95;101454.59;7394645;19;20886;-49
2022/03/13 02:12:29;;;;;;;16.43;8.23;;;;;;;1.63;56.18;101453.72;7391106;19;20384;-48
2022/03/13 02:15:01;;;;;;;17.93;9.33;;;;;;;1.64;58.65;101458.03;7394430;19;20419;-50
2022/03/13 02:17:36;;;;;;;15.00;7.90;;;;;;;1.67;56.65;101454.13;7391082;19;20914;-49
2022/03/13 02:20:07;;;;;;;17.90;9.40;;;;;;;1.79;60.32;101459.38;7394640;19;20368;-53
2022/03/13 02:22:36;;;;;;;19.63;9.27;;;;;;;1.73;56.68;101464.84;7390819;19;20896;-48
2022/03/13 02:25:10;;;;;;;17.47;8.90;;;;;;;1.66;56.82;101452.34;7393381;19;20398;-51
2022/03/13 02:27:39;;;;;;;19.10;8.70;;;;;;;1.68;60.85;101457.53;7390948;19;20403;-54
2022/03/13 02:30:11;;;;;;;21.60;8.93;;;;;;;1.72;58.85;101459.59;7394242;19;20386;-47
2022/03/13 02:32:40;;;;;;;14.43;8.13;;;;;;;1.63;57.02;101451.16;7391011;19;20765;-48
2022/03/13 02:35:11;;;;;;;16.57;8.13;;;;;;;1.35;56.32;101449.59;7396522;19;20406;-52
2022/03/13 02:37:41;;;;;;;16.83;8.50;;;;;;;1.23;56.98;101448.47;7389499;19;20522;-47
2022/03/13 02:40:22;;;;;;;17.97;8.73;;;;;;;1.29;59.81;101449.03;7394016;19;20765;-48
2022/03/13 02:42:51;;;;;;;18.40;9.00;;;;;;;1.34;58.83;101445.25;7390656;19;20397;-51
2022/03/13 02:45:30;;;;;;;15.20;8.07;;;;;;;1.31;58.39;101442.44;7392959;19;20414;-49
2022/03/13 02:48:00;;;;;;;15.70;8.60;;;;;;;1.24;60.77;101440.09;7389933;19;20401;-51
2022/03/13 02:50:30;;;;;;;16.07;8.00;;;;;;;1.12;60.89;101440.75;7388966;19;20395;-50
2022/03/13 02:53:00;;;;;;;14.55;7.95;;;;;;;1.29;62.30;101446.50;7391714;19;20443;-52
2022/03/13 02:55:34;;;;;;;17.30;8.20;;;;;;;1.18;61.67;101443.84;7392338;19;20577;-51
2022/03/13 02:58:03;;;;;;;16.60;8.60;;;;;;;1.20;61.05;101444.91;7389478;19;20446;-50
2022/03/13 03:00:47;;;;;;;19.60;10.20;;;;;;;1.08;61.01;101442.13;7394093;19;20379;-47
2022/03/13 03:03:17;;;;;;;19.90;9.33;;;;;;;1.03;61.67;101437.41;7389623;19;20427;-48
2022/03/13 03:05:47;;;;;;;16.40;9.27;;;;;;;1.01;62.29;101451.59;7392371;19;20473;-50
2022/03/13 03:08:17;;;;;;;16.60;8.77;;;;;;;0.94;61.53;101447.63;7388671;19;20423;-47
2022/03/13 03:10:49;;;;;;;20.97;8.63;;;;;;;0.99;63.06;101450.56;7393900;19;20728;-47
2022/03/13 03:13:20;;;;;;;18.33;8.85;;;;;;;1.06;62.58;101436.03;7389670;19;20495;-51
2022/03/13 03:15:49;;;;;;;15.67;8.43;;;;;;;0.90;62.15;101438.81;7391965;19;20518;-49
2022/03/13 03:18:19;;;;;;;16.35;8.50;;;;;;;0.99;64.21;101433.69;7389091;19;20419;-47
2022/03/13 03:20:49;;;;;;;16.40;7.83;;;;;;;0.89;63.67;101434.50;7392700;19;20123;-51
2022/03/13 03:23:18;;;;;;;17.10;8.40;;;;;;;0.91;65.93;101440.59;7389129;19;20411;-48
2022/03/13 03:25:50;;;;;;;17.75;8.52;;;;;;;0.72;64.57;101432.03;7391493;19;20412;-47
2022/03/13 03:28:22;;;;;;;17.20;8.70;;;;;;;0.70;64.08;101439.50;7390032;19;20200;-50
2022/03/13 03:30:52;;;;;;;18.98;9.52;;;;;;;0.59;64.95;101440.16;7393227;19;20582;-49
2022/03/13 03:33:21;;;;;;;24.17;9.43;;;;;;;0.53;65.34;101430.34;7388823;19;20190;-49
2022/03/13 03:35:51;;;;;;;18.17;8.50;;;;;;;0.71;67.87;101440.41;7391271;19;20515;-49
2022/03/13 03:38:20;;;;;;;19.20;8.98;;;;;;;0.73;67.21;101438.91;7388054;19;20249;-49
2022/03/13 03:40:52;;;;;;;18.90;8.55;;;;;;;0.89;68.98;101436.13;7392956;19;20130;-48
2022/03/13 03:43:22;;;;;;;17.37;9.00;;;;;;;0.67;68.62;101441.78;7389534;19;20209;-48
2022/03/13 03:45:51;;;;;;;21.33;8.83;;;;;;;0.63;67.13;101434.63;7390944;19;20965;-51
2022/03/13 03:48:22;;;;;;;18.92;8.52;;;;;;;0.56;68.71;101447.50;7388141;19;20775;-48
2022/03/13 03:50:51;;;;;;;17.17;8.50;;;;;;;0.61;69.65;101448.84;7392719;19;20135;-50
2022/03/13 03:53:21;;;;;;;21.80;9.38;;;;;;;0.65;69.04;101445.81;7388280;19;20197;-50
2022/03/13 03:55:53;;;;;;;21.25;8.90;;;;;;;0.60;69.04;101447.94;7390805;19;20163;-51
2022/03/13 03:58:22;;;;;;;17.40;8.93;;;;;;;0.49;70.78;101449.47;7389015;19;20209;-49
2022/03/13 04:00:52;;;;;;;21.33;10.20;;;;;;;0.46;69.25;101450.84;7399804;19;20391;-47
2022/03/13 04:03:21;;;;;;;20.73;9.25;;;;;;;0.31;69.03;101441.00;7395340;19;20986;-47
2022/03/13 04:05:51;;;;;;;16.90;8.82;;;;;;;0.48;74.88;101452.78;7396748;19;20627;-49
2022/03/13 04:08:20;;;;;;;20.17;9.75;;;;;;;0.43;70.78;101453.06;7394864;19;20526;-49
2022/03/13 04:10:52;;;;;;;17.83;9.05;;;;;;;0.44;70.65;101457.38;7399785;19;20134;-47
2022/03/13 04:13:22;;;;;;;20.92;9.48;;;;;;;0.45;73.39;101456.66;7395575;19;20196;-49
2022/03/13 04:15:52;;;;;;;22.70;9.85;;;;;;;0.26;70.99;101455.81;7396881;19;20532;-51
2022/03/13 04:18:21;;;;;;;25.92;11.00;;;;;;;0.26;71.38;101454.94;7394579;19;20198;-47
2022/03/13 04:20:51;;;;;;;21.35;8.90;;;;;;;0.31;74.25;101458.78;7399387;19;20474;-50
2022/03/13 04:23:20;;;;;;;25.63;11.43;;;;;;;0.12;72.48;101451.94;7394354;19;20198;-51
2022/03/13 04:25:52;;;;;;;47.67;19.50;;;;;;;0.28;76.62;101452.50;7398913;19;20162;-48
2022/03/13 04:28:22;;;;;;;24.27;10.90;;;;;;;0.23;75.25;101447.00;7393886;19;20197;-50
2022/03/13 04:30:59;;;;;;;22.17;10.35;;;;;;;0.28;78.50;101448.34;7399021;19;20455;-47
2022/03/13 04:33:33;;;;;;;33.10;13.38;;;;;;;0.56;80.98;101456.00;7394863;19;20205;-47
2022/03/13 04:36:10;;;;;;;18.50;9.20;;;;;;;0.59;79.06;101451.22;7396046;19;20162;-49
2022/03/13 04:38:40;;;;;;;24.83;10.90;;;;;;;0.54;77.25;101452.44;7393859;19;20201;-50
2022/03/13 04:41:12;;;;;;;22.00;9.93;;;;;;;0.36;75.63;101451.63;7398602;19;20206;-49
2022/03/13 04:43:42;;;;;;;19.75;9.15;;;;;;;0.27;73.71;101451.63;7395342;19;20204;-48
2022/03/13 04:46:16;;;;;;;22.83;10.68;;;;;;;0.23;73.82;101447.91;7399695;19;20490;-51
2022/03/13 04:48:46;;;;;;;22.15;9.50;;;;;;;0.26;74.61;101450.72;7396909;19;20209;-51
2022/03/13 04:51:15;;;;;;;17.45;9.05;;;;;;;0.09;74.46;101446.59;7400981;19;20145;-49
2022/03/13 04:53:45;;;;;;;21.08;10.10;;;;;;;-0.02;72.62;101453.19;7393734;19;20190;-49
2022/03/13 04:56:18;;;;;;;22.73;9.63;;;;;;;-0.05;73.37;101444.41;7398853;19;20476;-48
2022/03/13 04:58:47;;;;;;;19.85;9.05;;;;;;;-0.16;74.98;101454.41;7393620;19;20525;-48
2022/03/13 05:01:19;;;;;;;19.15;8.80;;;;;;;-0.22;75.28;101450.38;7397933;19;20127;-49
2022/03/13 05:03:49;;;;;;;21.27;9.73;;;;;;;-0.20;75.79;101454.84;7392893;19;20656;-48
2022/03/13 05:06:18;;;;;;;21.35;10.10;;;;;;;-0.11;75.08;101443.81;7395097;19;20200;-48
2022/03/13 05:08:49;;;;;;;21.10;9.65;;;;;;;-0.18;75.71;101445.75;7392279;19;20194;-52
2022/03/13 05:11:21;;;;;;;20.08;10.10;;;;;;;-0.16;75.79;101449.34;7394980;19;20127;-50
2022/03/13 05:13:50;;;;;;;17.15;9.20;;;;;;;-0.27;75.89;101449.94;7394919;19;20197;-49
2022/03/13 05:16:20;;;;;;;19.35;8.13;;;;;;;-0.22;76.23;101442.75;7397364;19;20123;-49
2022/03/13 05:18:50;;;;;;;22.65;9.98;;;;;;;-0.03;76.12;101445.44;7393014;19;20553;-47
2022/03/13 05:21:19;;;;;;;20.92;10.30;;;;;;;0.15;76.72;101446.28;7397330;19;20127;-50
2022/03/13 05:23:49;;;;;;;25.73;11.52;;;;;;;0.06;76.17;101445.41;7394074;19;20198;-48
2022/03/13 05:26:21;;;;;;;26.80;12.15;;;;;;;-0.02;74.96;101442.13;7394771;19;20142;-48
2022/03/13 05:28:51;;;;;;;20.75;10.52;;;;;;;-0.12;75.73;101444.56;7392530;19;20258;-52
2022/03/13 05:31:20;;;;;;;31.02;13.13;;;;;;;-0.05;76.08;101450.34;7396943;19;20131;-49
2022/03/13 05:33:50;;;;;;;30.55;14.02;;;;;;;0.13;75.30;101452.88;7391854;19;20250;-47
2022/03/13 05:36:19;;;;;;;25.83;12.23;;;;;;;0.31;75.57;101452.81;7396818;19;20485;-50
2022/03/13 05:38:49;;;;;;;26.38;12.30;;;;;;;0.29;74.45;101447.59;7390998;19;20201;-49
2022/03/13 05:41:22;;;;;;;20.42;9.75;;;;;;;0.03;72.63;101446.03;7396780;19;20126;-49
2022/03/13 05:43:53;;;;;;;21.73;10.20;;;;;;;-0.09;73.78;101445.75;7392192;19;20222;-49
2022/03/13 05:46:23;;;;;;;21.23;9.73;;;;;;;-0.24;73.97;101439.19;7394662;19;20466;-48
2022/03/13 05:48:52;;;;;;;20.73;10.13;;;;;;;-0.15;75.71;101445.16;7391646;19;20270;-48
2022/03/13 05:51:27;;;;;;;23.20;10.25;;;;;;;-0.07;76.01;101450.94;7397038;19;20154;-50
2022/03/13 05:53:56;;;;;;;20.23;9.45;;;;;;;-0.16;73.98;101449.34;7391621;19;20523;-50
2022/03/13 05:56:28;;;;;;;17.10;8.70;;;;;;;-0.06;74.27;101455.31;7396314;19;20127;-49
2022/03/13 05:58:58;;;;;;;23.08;9.32;;;;;;;0.02;74.08;101459.47;7391226;19;20191;-47
2022/03/13 06:01:27;;;;;;;20.52;9.65;;;;;;;0.01;73.56;101462.75;7395715;19;20133;-50
2022/03/13 06:04:00;;;;;;;18.90;9.65;;;;;;;-0.03;73.32;101458.13;7390523;19;20186;-48
2022/03/13 06:06:32;;;;;;;18.63;9.15;;;;;;;-0.16;71.69;101463.66;7394201;19;20196;-49
2022/03/13 06:09:01;;;;;;;16.08;7.78;;;;;;;0.00;71.57;101455.91;7389994;19;20195;-52
2022/03/13 06:11:33;;;;;;;17.85;9.00;;;;;;;0.05;71.71;101458.88;7395953;19;20525;-47
2022/03/13 06:14:03;;;;;;;21.95;8.27;;;;;;;0.39;71.85;101467.13;7390713;19;20210;-50
2022/03/13 06:16:33;;;;;;;20.73;8.95;;;;;;;0.02;69.68;101459.47;7395382;19;20127;-49
2022/03/13 06:19:02;;;;;;;18.77;9.45;;;;;;;-0.27;71.31;101455.00;7390513;19;20190;-50
2022/03/13 06:21:32;;;;;;;18.65;8.70;;;;;;;-0.37;72.29;101460.84;7394115;19;20133;-50
2022/03/13 06:24:01;;;;;;;21.23;9.00;;;;;;;-0.44;73.00;101461.91;7390067;19;20533;-52
2022/03/13 06:26:34;;;;;;;18.20;8.48;;;;;;;-0.46;73.28;101462.50;7394196;19;20132;-49
2022/03/13 06:29:03;;;;;;;21.50;8.65;;;;;;;-0.39;73.61;101466.50;7390029;19;20661;-49
2022/03/13 06:31:33;;;;;;;18.45;8.95;;;;;;;-0.44;72.48;101466.06;7394905;19;20135;-47
2022/03/13 06:34:03;;;;;;;20.30;9.27;;;;;;;-0.40;72.09;101473.22;7390086;19;20324;-48
2022/03/13 06:36:34;;;;;;;23.50;9.63;;;;;;;-0.34;71.89;101472.91;7394796;19;20451;-50
2022/03/13 06:39:03;;;;;;;19.33;9.02;;;;;;;-0.30;70.75;101462.34;7388610;19;20524;-52
2022/03/13 06:41:36;;;;;;;17.67;8.35;;;;;;;-0.32;70.97;101464.72;7394676;19;20119;-48
2022/03/13 06:44:06;;;;;;;22.88;8.43;;;;;;;-0.27;70.38;101465.16;7390272;19;20202;-53
2022/03/13 06:46:36;;;;;;;19.20;7.78;;;;;;;-0.21;70.38;101464.88;7393442;19;20123;-47
2022/03/13 06:49:06;;;;;;;18.42;8.27;;;;;;;-0.18;69.65;101468.59;7392750;19;20193;-48
2022/03/13 06:51:41;;;;;;;20.40;8.90;;;;;;;-0.10;69.30;101471.84;7394249;19;20137;-49
2022/03/13 06:54:11;;;;;;;17.88;7.82;;;;;;;-0.05;69.16;101468.13;7389406;19;20190;-47
2022/03/13 06:56:44;;;;;;;20.23;8.55;;;;;;;0.03;68.06;101478.09;7394272;19;20131;-47
2022/03/13 06:59:13;;;;;;;17.10;7.53;;;;;;;0.05;67.50;101474.97;7389935;19;20201;-49
2022/03/13 07:01:43;;;;;;;20.02;8.60;;;;;;;0.15;65.58;101468.25;7393697;19;20138;-49
2022/03/13 07:04:14;;;;;;;20.58;8.90;;;;;;;0.20;65.13;101475.53;7389548;19;20199;-50
2022/03/13 07:06:44;;;;;;;16.05;7.88;;;;;;;0.27;63.91;101479.56;7392787;19;20123;-48
2022/03/13 07:09:14;;;;;;;16.98;8.20;;;;;;;0.35;63.69;101483.72;7386161;19;20236;-50
2022/03/13 07:11:47;;;;;;;26.17;11.77;;;;;;;0.45;63.23;101485.47;7393477;19;20134;-49
2022/03/13 07:14:18;;;;;;;19.98;8.13;;;;;;;0.50;61.50;101480.81;7388773;19;20194;-47
2022/03/13 07:16:48;;;;;;;16.55;8.20;;;;;;;0.56;61.02;101483.94;7397093;19;20127;-48
2022/03/13 07:19:17;;;;;;;19.00;8.88;;;;;;;0.64;60.46;101490.66;7388886;19;20696;-51
2022/03/13 07:21:47;;;;;;;19.70;10.38;;;;;;;0.78;60.24;101483.41;7393228;19;20190;-49
2022/03/13 07:24:17;;;;;;;16.13;7.90;;;;;;;0.81;59.18;101478.59;7388264;19;20194;-46
2022/03/13 07:26:50;;;;;;;19.05;8.70;;;;;;;0.91;58.11;101481.25;7391860;19;20123;-48
2022/03/13 07:29:25;;;;;;;15.90;7.60;;;;;;;0.96;57.65;101479.13;7385492;19;20192;-49
2022/03/13 07:31:56;;;;;;;17.90;8.38;;;;;;;1.00;56.87;101475.22;7392710;19;20564;-47
2022/03/13 07:34:26;;;;;;;17.48;7.40;;;;;;;1.06;56.05;101480.88;7385030;19;20198;-48
2022/03/13 07:36:55;;;;;;;21.02;7.80;;;;;;;1.13;55.86;101488.31;7390989;19;20133;-48
2022/03/13 07:39:25;;;;;;;14.60;8.27;;;;;;;1.18;55.21;101482.00;7387361;19;20190;-48
2022/03/13 07:41:57;;;;;;;16.20;8.07;;;;;;;1.28;54.58;101482.84;7394737;19;20392;-48
2022/03/13 07:44:26;;;;;;;17.48;7.88;;;;;;;1.35;53.53;101475.88;7387875;19;20542;-48
2022/03/13 07:46:56;;;;;;;20.75;8.77;;;;;;;1.46;53.04;101474.34;7391138;19;20202;-54
2022/03/13 07:49:26;;;;;;;16.80;7.93;;;;;;;1.52;52.68;101476.53;7387640;19;20194;-50
2022/03/13 07:51:55;;;;;;;15.10;7.78;;;;;;;1.59;53.20;101462.72;7392270;19;20127;-48
2022/03/13 07:54:25;;;;;;;15.77;8.07;;;;;;;1.71;52.11;101470.53;7390704;19;20191;-48
2022/03/13 07:56:57;;;;;;;33.77;13.43;;;;;;;1.81;52.58;101468.06;7392106;19;20395;-48
2022/03/13 07:59:26;;;;;;;13.98;6.97;;;;;;;1.85;51.65;101474.31;7388049;19;20419;-48
2022/03/13 08:01:56;;;;;;;19.70;8.80;;;;;;;1.97;51.94;101470.31;7391403;19;20592;-49
2022/03/13 08:04:26;;;;;;;18.63;8.30;;;;;;;2.08;51.68;101476.34;7386406;19;20430;-48
2022/03/13 08:06:56;;;;;;;16.20;7.30;;;;;;;2.16;50.54;101471.94;7390790;19;20392;-49
2022/03/13 08:09:25;;;;;;;17.30;9.10;;;;;;;2.24;49.47;101470.94;7386827;19;20426;-48
2022/03/13 08:11:58;;;;;;;14.57;7.50;;;;;;;2.28;50.18;101478.09;7391631;19;20394;-48
2022/03/13 08:14:27;;;;;;;16.13;7.53;;;;;;;2.47;50.15;101477.13;7386952;19;20421;-48
2022/03/13 08:16:57;;;;;;;15.57;7.90;;;;;;;2.53;50.14;101475.13;7391564;19;20384;-53
2022/03/13 08:19:27;;;;;;;18.30;8.50;;;;;;;2.62;49.82;101476.66;7386806;19;20425;-48
2022/03/13 08:21:57;;;;;;;16.20;7.70;;;;;;;2.72;49.20;101471.56;7391495;19;20391;-52
2022/03/13 08:24:27;;;;;;;13.90;7.70;;;;;;;2.80;47.99;101462.94;7385310;19;20973;-48
2022/03/13 08:26:59;;;;;;;15.10;7.47;;;;;;;2.88;47.01;101465.22;7390130;19;20379;-50
2022/03/13 08:29:33;;;;;;;17.97;7.57;;;;;;;2.91;47.27;101465.47;7387028;19;20419;-50
2022/03/13 08:32:02;;;;;;;15.67;7.50;;;;;;;2.94;45.69;101465.75;7393945;19;20388;-49
2022/03/13 08:34:33;;;;;;;16.50;7.77;;;;;;;3.07;46.04;101462.53;7386507;19;20415;-50
2022/03/13 08:37:05;;;;;;;23.03;9.27;;;;;;;3.18;45.92;101459.22;7391584;19;20890;-49
2022/03/13 08:39:35;;;;;;;12.80;7.80;;;;;;;3.71;47.56;101452.41;7390171;19;20443;-49
2022/03/13 08:42:08;;;;;;;16.80;7.60;;;;;;;3.89;46.16;101455.53;7395377;19;20743;-47
2022/03/13 08:44:38;;;;;;;14.93;7.50;;;;;;;4.01;45.67;101453.09;7393658;19;20433;-49
2022/03/13 08:47:07;;;;;;;13.67;8.37;;;;;;;4.04;43.36;101446.56;7397476;19;20359;-47
2022/03/13 08:49:37;;;;;;;13.70;7.53;;;;;;;4.65;45.24;101453.78;7396665;19;20407;-49
2022/03/13 08:52:07;;;;;;;14.90;7.70;;;;;;;4.53;43.92;101451.19;7397536;19;20984;-48
2022/03/13 08:54:37;;;;;;;17.17;7.97;;;;;;;4.42;43.84;101455.44;7396063;19;20415;-50
2022/03/13 08:57:09;;;;;;;19.60;9.20;;;;;;;4.45;43.19;101453.13;7399299;19;20375;-49
2022/03/13 08:59:38;;;;;;;23.90;12.77;;;;;;;4.84;45.09;101457.75;7396598;19;20414;-47
2022/03/13 09:02:09;;;;;;;14.47;8.00;;;;;;;4.82;42.60;101455.06;7397489;19;20367;-50
2022/03/13 09:04:41;;;;;;;38.23;15.60;;;;;;;4.81;41.88;101442.16;7396972;19;20447;-47
2022/03/13 09:07:10;;;;;;;16.80;8.43;;;;;;;4.60;41.63;101457.66;7392204;19;20373;-50
2022/03/13 09:09:40;;;;;;;49.37;23.93;;;;;;;4.92;44.43;101455.78;7396256;19;20732;-51
2022/03/13 09:12:13;;;;;;;24.33;11.50;;;;;;;5.14;40.97;101451.50;7393242;19;20377;-48
2022/03/13 09:14:42;;;;;;;44.30;22.30;;;;;;;5.43;42.83;101451.88;7396126;19;21060;-51
2022/03/13 09:17:12;;;;;;;20.43;9.80;;;;;;;5.65;40.17;101453.47;7393134;19;20721;-49
2022/03/13 09:19:41;;;;;;;20.10;10.80;;;;;;;5.50;40.32;101448.97;7396017;19;20725;-49
2022/03/13 09:22:13;;;;;;;17.90;8.67;;;;;;;5.76;40.02;101452.59;7396894;19;20364;-47
2022/03/13 09:24:44;;;;;;;31.93;14.43;;;;;;;5.97;39.89;101451.44;7395560;19;20762;-49
2022/03/13 09:27:16;;;;;;;25.90;9.77;;;;;;;5.81;40.00;101443.53;7390629;19;20726;-51
2022/03/13 09:29:46;;;;;;;16.53;7.93;;;;;;;5.85;39.74;101439.53;7395824;19;20368;-52
2022/03/13 09:32:15;;;;;;;32.63;16.10;;;;;;;5.86;39.56;101437.88;7391304;19;20388;-47
2022/03/13 09:34:45;;;;;;;60.13;21.30;;;;;;;5.84;39.81;101440.31;7394888;19;20395;-49
2022/03/13 09:37:14;;;;;;;15.63;8.00;;;;;;;5.79;39.11;101437.41;7392409;19;20391;-50
2022/03/13 09:40:04;;;;;;;63.03;24.40;;;;;;;6.01;40.61;101432.94;7398160;19;20380;-49
2022/03/13 09:42:36;;;;;;;19.17;10.53;;;;;;;5.84;39.46;101435.19;7392445;19;20766;-49
2022/03/13 09:45:06;;;;;;;41.53;22.33;;;;;;;6.10;39.23;101441.31;7394758;19;20394;-51
2022/03/13 09:47:36;;;;;;;20.33;10.57;;;;;;;6.21;38.99;101431.84;7394777;19;20418;-48
2022/03/13 09:50:07;;;;;;;27.30;11.70;;;;;;;6.41;39.33;101427.22;7395633;19;20450;-53
2022/03/13 09:52:39;;;;;;;12.60;7.50;;;;;;;6.12;37.99;101436.31;7391821;19;20398;-50
2022/03/13 09:55:10;;;;;;;14.90;7.97;;;;;;;6.06;38.10;101437.63;7395067;19;20418;-49
2022/03/13 09:57:46;;;;;;;16.67;8.10;;;;;;;6.00;38.02;101431.19;7388359;19;20374;-49
2022/03/13 10:00:20;;;;;;;14.27;7.10;;;;;;;6.06;38.10;101441.88;7395183;19;20424;-47
2022/03/13 10:02:54;;;;;;;15.53;8.20;;;;;;;6.14;38.12;101432.16;7391229;19;20427;-49
2022/03/13 10:05:25;;;;;;;13.17;7.80;;;;;;;6.24;37.83;101431.16;7393792;19;20399;-47
2022/03/13 10:07:58;;;;;;;17.70;9.50;;;;;;;6.32;37.87;101424.91;7386805;19;20438;-49
2022/03/13 10:10:29;;;;;;;17.60;8.90;;;;;;;6.35;37.50;101435.34;7397521;19;20396;-47
2022/03/13 10:13:02;;;;;;;19.80;9.67;;;;;;;6.40;37.69;101433.13;7390712;19;20926;-48
2022/03/13 10:15:33;;;;;;;16.27;8.20;;;;;;;6.45;37.57;101436.88;7396991;19;20411;-50
2022/03/13 10:18:13;;;;;;;14.87;8.40;;;;;;;6.52;37.74;101433.97;7390088;19;20430;-47
2022/03/13 10:20:43;;;;;;;14.27;8.30;;;;;;;6.67;37.45;101429.00;7394963;19;20383;-47
2022/03/13 10:23:16;;;;;;;16.90;8.57;;;;;;;6.88;38.44;101434.69;7391230;19;20986;-48
2022/03/13 10:25:47;;;;;;;13.20;7.90;;;;;;;6.95;38.29;101433.44;7393933;19;20413;-52
2022/03/13 10:28:21;;;;;;;18.00;9.27;;;;;;;7.19;39.19;101440.09;7387509;19;20421;-47
2022/03/13 10:31:08;;;;;;;21.80;9.27;;;;;;;7.13;37.70;101440.59;7395944;19;20423;-51
2022/03/13 10:33:58;;;;;;;20.90;10.67;;;;;;;7.15;36.82;101445.06;7389491;19;20413;-51
2022/03/13 10:36:35;;;;;;;19.00;10.00;;;;;;;7.14;36.89;101445.81;7394096;19;20447;-49
2022/03/13 10:39:06;;;;;;;14.40;7.63;;;;;;;7.22;36.22;101441.19;7389532;19;20502;-53
2022/03/13 10:41:47;;;;;;;16.00;8.23;;;;;;;7.41;36.16;101440.75;7394351;19;20385;-52
2022/03/13 10:44:22;;;;;;;19.27;9.33;;;;;;;7.56;37.18;101439.97;7388072;19;20462;-49
2022/03/13 10:46:55;;;;;;;14.80;7.77;;;;;;;7.60;37.04;101441.06;7393525;19;20395;-51
2022/03/13 10:49:36;;;;;;;16.70;8.70;;;;;;;7.68;36.99;101445.00;7389330;19;20436;-47
2022/03/13 10:52:25;;;;;;;21.70;9.53;;;;;;;7.81;39.10;101428.69;7393549;19;20365;-50
2022/03/13 10:54:55;;;;;;;14.80;8.13;;;;;;;7.84;37.19;101428.88;7393666;19;20518;-48
2022/03/13 10:57:25;;;;;;;14.97;7.80;;;;;;;7.86;37.01;101427.31;7387760;19;21217;-49
2022/03/13 11:00:15;;;;;;;15.33;8.40;;;;;;;7.66;35.71;101424.38;7393847;19;20478;-47
2022/03/13 11:02:45;;;;;;;29.37;12.17;;;;;;;7.84;36.53;101414.38;7389024;19;20408;-49
2022/03/13 11:05:15;;;;;;;27.63;12.57;;;;;;;7.97;37.39;101416.03;7392186;19;20421;-47
2022/03/13 11:07:45;;;;;;;30.00;12.67;;;;;;;8.08;38.22;101402.97;7389763;19;20425;-50
2022/03/13 11:10:17;;;;;;;13.97;8.13;;;;;;;8.10;36.19;101401.34;7392598;19;20388;-48
2022/03/13 11:12:47;;;;;;;16.23;7.63;;;;;;;8.24;36.61;101404.78;7387294;19;20496;-48
2022/03/13 11:15:19;;;;;;;12.47;8.13;;;;;;;8.32;35.98;101402.69;7393542;19;20448;-49
2022/03/13 11:17:49;;;;;;;13.73;7.40;;;;;;;8.31;35.75;101408.66;7389059;19;20421;-52
2022/03/13 11:20:20;;;;;;;15.83;8.30;;;;;;;8.19;35.60;101404.50;7393247;19;20463;-48
2022/03/13 11:22:50;;;;;;;14.50;7.30;;;;;;;8.33;35.74;101402.81;7390927;19;21131;-48
2022/03/13 11:25:25;;;;;;;14.90;8.50;;;;;;;8.43;36.34;101398.22;7395470;19;20868;-48
2022/03/13 11:27:55;;;;;;;14.60;7.67;;;;;;;8.44;36.72;101388.03;7388321;19;20408;-53
2022/03/13 11:30:36;;;;;;;14.80;7.60;;;;;;;8.55;35.94;101391.25;7392806;19;20976;-49
2022/03/13 11:33:07;;;;;;;17.60;7.27;;;;;;;8.53;35.83;101386.81;7388793;19;20455;-49
2022/03/13 11:35:37;;;;;;;15.00;8.37;;;;;;;8.61;36.11;101383.03;7391567;19;20497;-48
2022/03/13 11:38:21;;;;;;;14.37;8.03;;;;;;;8.75;36.33;101378.69;7386477;19;20498;-47
2022/03/13 11:40:51;;;;;;;13.63;7.83;;;;;;;8.91;35.59;101372.78;7392145;19;20383;-53